Time;durP1;ratioP1;P1;durP2;ratioP2;P2;SDS_P1;SDS_P2;PMS_P1;PMS_P2;Temp;Humidity;BMP_temperature;BMP_pressure;BME280_temperature;BME280_humidity;BME280_pressure;Samples;Min_cycle;Max_cycle;Signal;HPM_P1;HPM_P2
2021/05/11 00:03:01;;;;;;;1.08;0.88;;;17.00;42.10;;;;;;4846377;29;20068;-88
2021/05/11 00:08:50;;;;;;;1.15;0.85;;;17.00;42.30;;;;;;4852166;29;20041;-88
2021/05/11 00:14:51;;;;;;;1.10;0.85;;;16.90;42.60;;;;;;4846236;29;20090;-90
2021/05/11 00:20:42;;;;;;;4.03;0.93;;;16.90;42.60;;;;;;4846143;29;20029;-89
2021/05/11 00:26:37;;;;;;;0.70;0.70;;;16.90;42.80;;;;;;4845606;29;20094;-90
2021/05/11 00:32:30;;;;;;;1.08;0.95;;;16.80;42.70;;;;;;4845805;29;20041;-90
2021/05/11 00:38:18;;;;;;;1.17;0.77;;;16.70;43.00;;;;;;4845734;29;20037;-87
2021/05/11 00:44:25;;;;;;;1.83;1.00;;;16.60;43.20;;;;;;4845431;29;20159;-89
2021/05/11 00:50:15;;;;;;;2.33;0.90;;;16.60;43.30;;;;;;4845565;29;20041;-89
2021/05/11 00:56:09;;;;;;;1.50;1.17;;;16.50;43.30;;;;;;4845437;29;20033;-87
2021/05/11 01:08:15;;;;;;;3.28;1.35;;;16.50;44.00;;;;;;4845282;29;20069;-88
2021/05/11 01:14:06;;;;;;;2.10;1.13;;;16.50;44.00;;;;;;4845200;29;20082;-88
2021/05/11 01:20:01;;;;;;;1.58;1.10;;;16.50;44.20;;;;;;4845139;29;20073;-88
2021/05/11 02:30:28;;;;;;;3.53;1.60;;;15.90;45.40;;;;;;4856001;29;20108;-88
2021/05/11 02:36:18;;;;;;;2.42;1.60;;;15.80;45.70;;;;;;4844721;29;20033;-91
2021/05/11 02:42:08;;;;;;;3.50;1.85;;;15.80;45.80;;;;;;4843790;29;20046;-91
2021/05/11 02:47:56;;;;;;;2.85;1.33;;;15.70;45.90;;;;;;4843484;29;20105;-88
2021/05/11 02:53:57;;;;;;;4.82;1.92;;;15.70;46.20;;;;;;4849706;29;20046;-89
2021/05/11 03:00:17;;;;;;;4.40;1.60;;;15.70;46.40;;;;;;4843526;29;20125;-89
2021/05/11 03:06:05;;;;;;;2.90;1.80;;;15.60;46.40;;;;;;4843159;29;20118;-89
2021/05/11 03:11:55;;;;;;;2.72;1.35;;;15.60;46.50;;;;;;4843328;29;20037;-91
2021/05/11 03:17:45;;;;;;;1.45;1.33;;;15.40;46.20;;;;;;4842989;29;20076;-90
2021/05/11 03:23:33;;;;;;;3.03;1.60;;;15.30;46.60;;;;;;4843210;29;20041;-89
2021/05/11 03:34:21;;;;;;;;;;;;;;;;;;;;;
2021/05/11 03:40:32;;;;;;;6.53;3.00;;;15.30;47.20;;;;;;4846760;29;20045;-89
2021/05/11 03:46:21;;;;;;;2.92;1.73;;;15.30;47.20;;;;;;4846269;29;20057;-87
2021/05/11 03:52:09;;;;;;;9.85;6.28;;;15.30;47.50;;;;;;4846704;29;20515;-89
2021/05/11 03:58:24;;;;;;;2.95;1.73;;;15.30;47.50;;;;;;4846577;29;20029;-89
2021/05/11 04:04:12;;;;;;;5.50;1.92;;;15.30;47.60;;;;;;4846391;29;20056;-89
2021/05/11 04:10:22;;;;;;;2.25;1.55;;;15.20;47.70;;;;;;4846113;29;20506;-88
2021/05/11 04:16:31;;;;;;;5.43;2.20;;;15.20;48.00;;;;;;4845841;29;20030;-89
2021/05/11 04:22:19;;;;;;;4.65;2.13;;;15.20;48.00;;;;;;4845812;29;20171;-87
2021/05/11 04:28:07;;;;;;;4.85;2.40;;;15.10;48.10;;;;;;4846269;29;20102;-87
2021/05/11 04:33:57;;;;;;;4.95;2.28;;;15.10;48.20;;;;;;4845818;29;20194;-87
2021/05/11 04:39:46;;;;;;;6.00;2.53;;;15.00;48.40;;;;;;4846204;29;20041;-86
2021/05/11 04:45:34;;;;;;;4.78;2.33;;;15.00;48.70;;;;;;4845740;29;20049;-88
2021/05/11 04:51:24;;;;;;;5.80;2.60;;;15.00;48.80;;;;;;4846470;29;20051;-88
2021/05/11 04:57:12;;;;;;;4.80;2.53;;;15.00;48.90;;;;;;4845356;29;20114;-87
2021/05/11 05:03:03;;;;;;;5.45;2.35;;;15.00;48.90;;;;;;4845487;29;20118;-86
2021/05/11 05:08:53;;;;;;;5.85;2.42;;;14.90;49.00;;;;;;4845162;29;20053;-87
2021/05/11 05:14:41;;;;;;;6.22;2.90;;;15.00;49.40;;;;;;4845105;29;20082;-86
2021/05/11 05:20:30;;;;;;;6.55;2.95;;;15.10;49.60;;;;;;4844919;29;20402;-85
2021/05/11 05:26:22;;;;;;;5.38;2.50;;;15.10;49.60;;;;;;4845453;29;20049;-84
2021/05/11 05:36:11;;;;;;;3.97;2.08;;;15.20;49.60;;;;;;4845791;29;20052;-82
2021/05/11 05:41:59;;;;;;;7.18;3.00;;;15.20;50.00;;;;;;4844993;29;20060;-82
2021/05/11 05:47:51;;;;;;;6.72;3.17;;;15.30;50.10;;;;;;4844883;29;20059;-82
2021/05/11 05:53:42;;;;;;;6.93;2.70;;;15.40;50.40;;;;;;4844677;29;20570;-85
2021/05/11 05:59:30;;;;;;;5.82;2.72;;;15.50;50.50;;;;;;4844503;29;20511;-84
2021/05/11 06:05:21;;;;;;;7.43;2.95;;;15.70;50.80;;;;;;4844124;29;20502;-85
2021/05/11 06:11:17;;;;;;;6.68;2.60;;;16.00;51.10;;;;;;4844082;29;20451;-84
2021/05/11 06:22:35;;;;;;;6.13;2.47;;;16.70;51.40;;;;;;4844388;29;19915;-84
2021/05/11 06:28:24;;;;;;;7.05;3.00;;;17.10;51.40;;;;;;4844596;29;20054;-82
2021/05/11 06:38:07;;;;;;;6.65;2.70;;;17.60;51.40;;;;;;4844460;29;20074;-81
2021/05/11 06:44:01;;;;;;;5.90;2.70;;;17.90;51.70;;;;;;4843900;29;20535;-82
2021/05/11 06:55:52;;;;;;;6.05;2.65;;;18.30;51.40;;;;;;4843617;29;20418;-83
2021/05/11 07:01:40;;;;;;;9.73;3.22;;;18.60;51.70;;;;;;4843912;29;20098;-82
2021/05/11 07:07:30;;;;;;;5.78;2.70;;;18.80;51.50;;;;;;4843762;29;20048;-83
2021/05/11 07:13:19;;;;;;;4.95;2.17;;;19.00;51.60;;;;;;4843201;29;20109;-83
2021/05/11 07:19:06;;;;;;;4.03;2.40;;;19.20;51.80;;;;;;4843205;29;20079;-83
2021/05/11 07:24:57;;;;;;;5.05;2.50;;;19.40;51.50;;;;;;4843188;29;20053;-83
2021/05/11 07:30:46;;;;;;;6.13;2.70;;;19.50;51.60;;;;;;4843142;29;20093;-83
2021/05/11 07:40:35;;;;;;;7.03;3.00;;;19.70;51.40;;;;;;4843052;29;20571;-83
2021/05/11 07:56:29;;;;;;;5.13;2.50;;;20.00;51.10;;;;;;4843172;29;20032;-84
2021/05/11 08:04:58;;;;;;;7.18;2.55;;;20.00;51.40;;;;;;4842570;29;20176;-84
2021/05/11 08:16:40;;;;;;;4.72;2.33;;;20.10;50.90;;;;;;4843487;29;20046;-83
2021/05/11 08:28:17;;;;;;;4.72;2.50;;;20.20;51.30;;;;;;4846010;29;20046;-85
2021/05/11 08:34:06;;;;;;;7.95;2.75;;;20.30;51.40;;;;;;4845946;29;20045;-83
2021/05/11 08:43:55;;;;;;;6.05;2.88;;;20.60;51.60;;;;;;4846011;29;20102;-83
2021/05/11 08:49:43;;;;;;;8.75;2.97;;;21.20;52.20;;;;;;4845888;29;20032;-83
2021/05/11 09:14:40;;;;;;;9.05;3.28;;;21.90;51.30;;;;;;4845178;29;20085;-84
2021/05/11 09:45:15;;;;;;;7.15;3.00;;;22.80;51.10;;;;;;4844951;29;20041;-83
2021/05/11 09:51:41;;;;;;;6.60;2.80;;;23.20;51.30;;;;;;4844520;29;20074;-84
2021/05/11 10:44:38;;;;;;;5.70;2.80;;;23.90;50.30;;;;;;4844166;29;20036;-84
2021/05/11 10:50:02;;;;;;;6.57;3.17;;;23.90;49.70;;;;;;4843566;29;20065;-82
2021/05/11 10:55:51;;;;;;;6.07;3.03;;;23.80;50.30;;;;;;4843583;29;20041;-84
2021/05/11 11:01:43;;;;;;;7.25;3.47;;;24.20;51.10;;;;;;4843040;29;20178;-83
2021/05/11 11:07:36;;;;;;;6.70;3.22;;;24.60;50.40;;;;;;4843319;29;20390;-84
2021/05/11 11:13:27;;;;;;;7.78;3.55;;;25.00;51.10;;;;;;4843212;29;20033;-81
2021/05/11 11:19:17;;;;;;;7.55;3.50;;;25.30;49.70;;;;;;4843153;29;20029;-83
2021/05/11 11:25:07;;;;;;;7.35;3.35;;;24.80;48.80;;;;;;4843046;29;20121;-81
2021/05/11 11:30:56;;;;;;;6.22;3.10;;;24.60;49.40;;;;;;4842856;29;20498;-81
2021/05/11 11:36:58;;;;;;;8.25;3.58;;;24.40;49.30;;;;;;4842792;29;20138;-81
2021/05/11 11:47:03;;;;;;;7.35;3.65;;;24.30;49.40;;;;;;4843003;29;20080;-83
2021/05/11 11:58:42;;;;;;;8.40;4.10;;;24.30;48.90;;;;;;4846488;29;20072;-81
2021/05/11 12:04:32;;;;;;;8.02;3.70;;;23.90;48.30;;;;;;4846173;29;20044;-83
2021/05/11 12:10:21;;;;;;;7.15;3.75;;;23.50;48.60;;;;;;4845957;29;20130;-83
2021/05/11 12:16:18;;;;;;;7.75;4.00;;;23.30;48.80;;;;;;4846032;29;20061;-82
2021/05/11 12:21:54;;;;;;;9.38;4.47;;;23.20;49.10;;;;;;4846164;29;19915;-81
2021/05/11 12:27:24;;;;;;;8.13;4.53;;;22.90;48.50;;;;;;4845861;29;19964;-82
2021/05/11 12:33:13;;;;;;;10.07;5.60;;;22.80;49.90;;;;;;4845647;29;20566;-82
2021/05/11 12:49:22;;;;;;;8.45;4.50;;;23.50;48.50;;;;;;4845648;29;20072;-84
2021/05/11 12:55:20;;;;;;;9.65;4.82;;;22.70;48.10;;;;;;4845390;29;20040;-82
2021/05/11 13:20:24;;;;;;;8.50;4.20;;;22.30;49.20;;;;;;4806719;29;20038;-83
2021/05/11 13:26:09;;;;;;;7.25;3.95;;;22.20;49.70;;;;;;4806771;29;20442;-83
2021/05/11 13:32:02;;;;;;;7.82;4.10;;;22.30;50.20;;;;;;4806395;29;20041;-83
2021/05/11 13:37:50;;;;;;;9.48;3.55;;;22.60;50.60;;;;;;4822572;29;20053;-85
2021/05/11 13:43:40;;;;;;;4.40;2.40;;;23.20;51.70;;;;;;4844673;29;20037;-84
2021/05/11 13:49:29;;;;;;;6.03;2.83;;;23.90;50.10;;;;;;4844466;29;20048;-84
2021/05/11 13:55:24;;;;;;;7.70;3.90;;;23.40;49.20;;;;;;4844152;29;20032;-83
2021/05/11 14:07:36;;;;;;;6.95;3.40;;;22.30;49.20;;;;;;4805804;29;20037;-83
2021/05/11 14:13:23;;;;;;;6.95;3.33;;;22.30;49.90;;;;;;4806094;29;20038;-84
2021/05/11 14:19:12;;;;;;;7.05;3.17;;;22.20;50.00;;;;;;4805462;29;20072;-84
2021/05/11 14:25:00;;;;;;;8.30;3.25;;;21.90;50.00;;;;;;4818861;29;20123;-83
2021/05/11 14:30:52;;;;;;;6.07;2.70;;;21.70;50.30;;;;;;4843852;29;20037;-83
2021/05/11 14:36:40;;;;;;;7.15;3.45;;;21.80;50.90;;;;;;4843472;29;20105;-83
2021/05/11 14:42:30;;;;;;;8.45;3.70;;;21.70;50.10;;;;;;4843392;29;20037;-83
2021/05/11 14:52:17;;;;;;;6.43;2.78;;;21.10;50.60;;;;;;4843462;29;20079;-83
2021/05/11 14:58:06;;;;;;;8.77;4.18;;;21.00;50.70;;;;;;4843339;29;20124;-84
2021/05/11 15:03:56;;;;;;;7.80;3.28;;;20.70;50.80;;;;;;4843554;29;20081;-83
2021/05/11 15:09:45;;;;;;;9.95;3.65;;;20.40;50.90;;;;;;4843395;29;20178;-84
2021/05/11 15:15:35;;;;;;;8.32;4.72;;;20.10;51.10;;;;;;4842838;29;20037;-84
2021/05/11 15:21:23;;;;;;;9.35;5.03;;;19.70;51.80;;;;;;4842776;29;20072;-84
2021/05/11 15:27:11;;;;;;;8.27;4.63;;;19.50;52.30;;;;;;4842766;29;20036;-84
2021/05/11 15:33:00;;;;;;;8.60;4.40;;;19.40;53.00;;;;;;4843037;29;20039;-84
2021/05/11 15:38:47;;;;;;;8.93;4.97;;;19.40;53.30;;;;;;4843215;29;20122;-84
2021/05/11 15:44:35;;;;;;;7.25;3.67;;;19.50;54.00;;;;;;4842757;29;20085;-84
2021/05/11 15:54:17;;;;;;;7.90;3.90;;;19.50;54.20;;;;;;4843003;29;20549;-84
2021/05/11 16:00:06;;;;;;;8.30;3.92;;;19.40;54.20;;;;;;4842848;29;20040;-83
2021/05/11 16:05:54;;;;;;;7.38;3.83;;;19.20;54.40;;;;;;4843170;29;20037;-83
2021/05/11 16:11:43;;;;;;;9.35;4.07;;;18.90;54.90;;;;;;4843026;29;20029;-82
2021/05/11 16:17:31;;;;;;;7.80;4.00;;;18.60;55.10;;;;;;4842709;29;20048;-83
2021/05/11 16:23:20;;;;;;;9.40;4.93;;;18.30;55.40;;;;;;4842581;29;20029;-83
2021/05/11 16:29:07;;;;;;;8.38;4.57;;;18.00;55.90;;;;;;4842599;29;20053;-83
2021/05/11 16:34:58;;;;;;;6.75;3.58;;;17.70;56.60;;;;;;4842330;29;20049;-83
2021/05/11 16:40:46;;;;;;;8.23;4.38;;;17.60;56.90;;;;;;4842394;29;20064;-83
2021/05/11 16:46:35;;;;;;;7.68;4.32;;;17.50;57.50;;;;;;4845848;29;20074;-83
2021/05/11 16:56:18;;;;;;;8.50;4.45;;;17.40;58.10;;;;;;4845497;29;20049;-84
2021/05/11 17:02:06;;;;;;;7.13;3.65;;;17.30;58.50;;;;;;4845335;29;20036;-84
2021/05/11 17:07:55;;;;;;;5.82;2.97;;;17.20;58.40;;;;;;4845199;29;20033;-83
2021/05/11 17:13:42;;;;;;;8.82;4.57;;;17.00;58.90;;;;;;4845228;29;20074;-83
2021/05/11 17:19:31;;;;;;;6.22;3.17;;;16.80;59.30;;;;;;4845160;29;20548;-83
2021/05/11 17:25:21;;;;;;;7.35;3.78;;;16.70;59.80;;;;;;4844981;29;20089;-83
2021/05/11 17:31:11;;;;;;;11.55;6.32;;;16.60;60.20;;;;;;4844993;29;20121;-83
2021/05/11 17:36:59;;;;;;;8.18;4.22;;;16.50;60.90;;;;;;4844782;29;20077;-85
2021/05/11 17:42:49;;;;;;;7.30;3.50;;;16.50;61.40;;;;;;4844836;29;20458;-83
2021/05/11 17:48:38;;;;;;;3.63;1.98;;;16.40;61.40;;;;;;4844411;29;20080;-83
2021/05/11 17:58:27;;;;;;;6.72;3.25;;;16.20;61.90;;;;;;4844519;29;20081;-88
2021/05/11 18:04:15;;;;;;;3.20;1.80;;;16.20;62.80;;;;;;4844624;29;20094;-86
2021/05/11 18:10:05;;;;;;;5.43;2.47;;;15.90;62.70;;;;;;4844537;29;20037;-86
2021/05/11 18:15:53;;;;;;;5.85;2.88;;;15.80;63.90;;;;;;4844516;29;20079;-86
2021/05/11 18:21:42;;;;;;;4.93;2.47;;;15.70;64.80;;;;;;4843970;29;20037;-85
2021/05/11 18:27:31;;;;;;;6.28;3.03;;;15.60;65.70;;;;;;4844118;29;20440;-86
2021/05/11 18:33:18;;;;;;;6.53;3.20;;;15.60;66.30;;;;;;4843739;29;20134;-85
2021/05/11 18:39:14;;;;;;;5.90;2.75;;;15.50;66.70;;;;;;4843644;29;20061;-85
2021/05/11 18:45:05;;;;;;;7.32;3.45;;;15.50;67.40;;;;;;4843628;29;20036;-86
2021/05/11 18:50:53;;;;;;;7.70;3.90;;;15.40;67.70;;;;;;4843785;29;20106;-85
2021/05/11 19:00:42;;;;;;;6.80;3.35;;;15.40;68.60;;;;;;4845789;29;20094;-85
2021/05/11 19:06:30;;;;;;;4.35;2.25;;;15.30;68.90;;;;;;4844134;29;20037;-84
2021/05/11 19:19:28;;;;;;;4.13;2.03;;;15.00;69.90;;;;;;4774772;29;20034;-88
2021/05/11 19:25:24;;;;;;;1.83;1.42;;;14.90;70.10;;;;;;4769145;30;20039;-88
2021/05/11 19:40:42;;;;;;;2.03;1.20;;;14.40;71.00;;;;;;4824517;29;20053;-89
2021/05/11 19:46:38;;;;;;;2.53;1.67;;;14.40;71.50;;;;;;4842906;29;20550;-87
2021/05/11 19:52:30;;;;;;;1.45;1.20;;;14.30;71.90;;;;;;4842796;29;20049;-86
2021/05/11 19:58:22;;;;;;;1.88;1.35;;;14.30;72.40;;;;;;4842476;29;20049;-87
2021/05/11 20:24:13;;;;;;;3.92;2.05;;;14.20;73.40;;;;;;4753950;30;20382;-90
2021/05/11 20:41:35;;;;;;;;;;;;;;;;;;;;;
2021/05/11 20:47:23;;;;;;;4.68;2.00;;;14.10;74.50;;;;;;4825594;29;20038;-91
2021/05/11 21:00:55;;;;;;;;;;;;;;;;;;;;;
2021/05/11 21:17:45;;;;;;;4.90;2.20;;;13.90;75.20;;;;;;4752927;30;20426;-91
2021/05/11 21:23:35;;;;;;;4.35;2.17;;;13.90;75.30;;;;;;4788669;30;20069;-89
2021/05/11 21:29:23;;;;;;;3.95;2.13;;;13.80;75.60;;;;;;4787566;29;20207;-89
2021/05/11 21:35:12;;;;;;;5.32;2.30;;;13.80;75.70;;;;;;4838174;29;20083;-90
2021/05/11 21:44:48;;;;;;;5.22;2.65;;;13.90;76.10;;;;;;4849986;29;20053;-90
2021/05/11 21:50:37;;;;;;;6.30;2.83;;;13.90;76.30;;;;;;4844373;29;20033;-89
2021/05/11 21:56:25;;;;;;;5.70;2.40;;;13.90;76.30;;;;;;4844585;29;20040;-91
2021/05/11 22:02:14;;;;;;;6.43;2.60;;;14.00;76.80;;;;;;4844722;29;20072;-91
2021/05/11 22:08:03;;;;;;;6.00;2.72;;;14.00;76.60;;;;;;4844607;29;20057;-89
2021/05/11 22:13:53;;;;;;;5.82;2.60;;;14.00;76.80;;;;;;4844848;29;20065;-92
2021/05/11 22:19:43;;;;;;;6.60;2.70;;;14.00;76.90;;;;;;4844556;29;20494;-91
2021/05/11 22:25:32;;;;;;;6.90;2.90;;;14.10;77.10;;;;;;4844386;29;20062;-92
2021/05/11 22:42:53;;;;;;;7.10;3.17;;;14.10;77.10;;;;;;4843988;29;20070;-91
2021/05/11 22:48:56;;;;;;;6.78;3.03;;;14.10;77.20;;;;;;4843906;29;20045;-91
2021/05/11 22:55:00;;;;;;;5.75;2.60;;;14.00;77.40;;;;;;4843782;29;20094;-91
2021/05/11 23:00:56;;;;;;;6.10;2.65;;;14.00;77.20;;;;;;4843875;29;20455;-91
2021/05/11 23:06:50;;;;;;;4.88;2.15;;;14.00;77.50;;;;;;4843818;29;20040;-92
2021/05/11 23:12:40;;;;;;;5.68;2.67;;;13.90;77.40;;;;;;4843537;29;20472;-91
2021/05/11 23:18:32;;;;;;;4.72;2.58;;;13.90;77.40;;;;;;4849718;29;20094;-91
2021/05/11 23:24:25;;;;;;;4.35;2.35;;;13.90;77.90;;;;;;4857527;29;20109;-90
2021/05/11 23:30:14;;;;;;;5.75;2.85;;;13.90;77.70;;;;;;4852502;29;20038;-92
2021/05/11 23:36:04;;;;;;;5.20;2.50;;;13.90;77.90;;;;;;4845357;29;20427;-93
2021/05/11 23:45:53;;;;;;;4.70;2.45;;;14.00;78.10;;;;;;4843212;29;20137;-90
2021/05/11 23:51:46;;;;;;;4.82;2.45;;;14.10;78.10;;;;;;4843154;29;20139;-90
2021/05/11 23:57:39;;;;;;;6.15;2.83;;;14.10;78.10;;;;;;4846446;29;20114;-90
